Time;durP1;ratioP1;P1;durP2;ratioP2;P2;SDS_P1;SDS_P2;PMS_P1;PMS_P2;Temp;Humidity;BMP_temperature;BMP_pressure;BME280_temperature;BME280_humidity;BME280_pressure;Samples;Min_cycle;Max_cycle;Signal;HPM_P1;HPM_P2
2023/07/22 00:00:49;;;;;;;6.77;4.50;;;15.00;99.90;;;;;;5028705;28;20674;-70
2023/07/22 00:03:14;;;;;;;4.47;4.07;;;15.00;99.90;;;;;;5034783;28;20664;-72
2023/07/22 00:05:40;;;;;;;4.17;3.83;;;15.10;99.90;;;;;;5036340;28;20211;-74
2023/07/22 00:08:05;;;;;;;3.90;3.53;;;15.10;99.90;;;;;;5032563;28;20209;-72
2023/07/22 00:10:31;;;;;;;3.93;3.63;;;15.10;99.90;;;;;;5036774;28;20607;-72
2023/07/22 00:12:56;;;;;;;5.93;3.93;;;15.00;99.90;;;;;;5032114;28;20238;-74
2023/07/22 00:15:23;;;;;;;4.77;4.07;;;15.10;99.90;;;;;;5036753;28;20286;-72
2023/07/22 00:17:50;;;;;;;4.40;4.10;;;15.10;99.90;;;;;;5030067;28;20197;-74
2023/07/22 00:20:16;;;;;;;5.90;5.13;;;15.20;99.90;;;;;;5032277;28;20206;-74
2023/07/22 00:22:42;;;;;;;4.97;4.57;;;15.20;99.90;;;;;;4967548;28;20440;-71
2023/07/22 00:25:12;;;;;;;5.40;4.90;;;15.20;99.90;;;;;;5047582;28;20262;-90
2023/07/22 00:27:38;;;;;;;4.53;4.20;;;15.20;99.90;;;;;;5027161;28;20203;-94
2023/07/22 00:30:06;;;;;;;4.77;4.27;;;15.20;99.90;;;;;;5047256;28;20218;-90
2023/07/22 00:32:31;;;;;;;4.80;4.47;;;15.30;99.90;;;;;;5043749;28;20276;-93
2023/07/22 00:34:57;;;;;;;5.40;4.70;;;15.20;99.90;;;;;;5024147;28;21718;-68
2023/07/22 00:37:23;;;;;;;5.27;4.80;;;15.20;99.90;;;;;;5035961;28;20725;-74
2023/07/22 00:39:48;;;;;;;4.30;4.00;;;15.20;99.90;;;;;;5035840;28;20283;-72
2023/07/22 00:42:14;;;;;;;5.27;4.77;;;15.00;99.90;;;;;;5026450;28;20695;-73
2023/07/22 00:44:39;;;;;;;5.73;5.23;;;14.90;99.90;;;;;;5027512;28;20203;-74
2023/07/22 00:47:05;;;;;;;4.60;4.30;;;14.80;99.90;;;;;;5029908;28;20281;-73
2023/07/22 00:49:31;;;;;;;6.40;5.80;;;14.70;99.90;;;;;;5033546;28;20563;-79
2023/07/22 00:52:04;;;;;;;6.50;5.90;;;14.60;99.90;;;;;;5034487;28;20230;-72
2023/07/22 00:54:30;;;;;;;6.27;5.67;;;14.60;99.90;;;;;;5032514;28;20206;-70
2023/07/22 00:56:57;;;;;;;6.77;5.67;;;14.70;99.90;;;;;;5013620;28;20426;-70
2023/07/22 00:59:23;;;;;;;5.97;5.47;;;14.70;99.90;;;;;;5032411;28;20520;-69
2023/07/22 01:01:49;;;;;;;6.30;5.63;;;14.90;99.90;;;;;;5031353;28;20283;-68
2023/07/22 01:04:17;;;;;;;6.30;5.80;;;14.80;99.90;;;;;;5034118;28;20241;-71
2023/07/22 01:06:44;;;;;;;7.13;6.43;;;14.70;99.90;;;;;;5033242;28;20206;-75
2023/07/22 01:09:10;;;;;;;5.93;5.43;;;14.70;99.90;;;;;;5018081;28;20206;-73
2023/07/22 01:11:35;;;;;;;11.07;6.13;;;14.60;99.90;;;;;;5007957;28;20223;-73
2023/07/22 01:14:01;;;;;;;8.07;6.67;;;14.50;99.90;;;;;;5035169;28;20202;-72
2023/07/22 01:16:28;;;;;;;6.27;5.77;;;14.50;99.90;;;;;;5028079;28;20203;-73
2023/07/22 01:18:54;;;;;;;8.47;6.83;;;14.50;99.90;;;;;;5035813;28;20586;-73
2023/07/22 01:21:22;;;;;;;7.57;6.67;;;14.40;99.90;;;;;;5033636;28;20325;-73
2023/07/22 01:23:48;;;;;;;7.27;6.53;;;14.50;99.90;;;;;;4970917;28;21280;-73
2023/07/22 01:26:14;;;;;;;7.17;6.57;;;14.40;99.90;;;;;;5031323;28;20211;-72
2023/07/22 01:28:40;;;;;;;7.27;6.67;;;14.30;99.90;;;;;;5027991;28;20214;-72
2023/07/22 01:31:05;;;;;;;7.57;6.77;;;14.50;99.90;;;;;;5036091;28;20630;-71
2023/07/22 01:33:31;;;;;;;10.30;7.03;;;14.50;99.90;;;;;;5035967;28;21084;-71
2023/07/22 01:35:57;;;;;;;8.33;7.63;;;14.40;99.90;;;;;;5032712;28;20282;-72
2023/07/22 01:38:22;;;;;;;7.80;7.13;;;14.40;99.90;;;;;;5029163;28;20305;-71
2023/07/22 01:40:48;;;;;;;8.47;7.77;;;14.40;99.90;;;;;;5036112;28;20203;-72
2023/07/22 01:43:13;;;;;;;7.13;6.53;;;14.40;99.90;;;;;;5033891;28;20994;-71
2023/07/22 01:45:39;;;;;;;9.07;8.17;;;14.30;99.90;;;;;;5031551;28;20202;-71
2023/07/22 01:48:06;;;;;;;7.90;7.23;;;14.40;99.90;;;;;;5035426;28;20198;-71
2023/07/22 01:50:32;;;;;;;8.20;7.47;;;14.40;99.90;;;;;;5025797;28;20593;-71
2023/07/22 01:52:57;;;;;;;11.40;8.20;;;14.40;99.90;;;;;;5008887;28;20221;-71
2023/07/22 01:55:23;;;;;;;9.83;7.47;;;14.50;99.90;;;;;;5029825;28;20198;-70
2023/07/22 01:57:48;;;;;;;7.53;6.93;;;14.50;99.90;;;;;;5031181;28;20188;-70
2023/07/22 02:00:15;;;;;;;7.77;6.87;;;14.60;99.90;;;;;;5030316;28;20273;-69
2023/07/22 02:02:41;;;;;;;8.37;7.67;;;14.50;99.90;;;;;;5031072;28;20238;-71
2023/07/22 02:05:09;;;;;;;7.13;6.63;;;14.50;99.90;;;;;;5035287;28;20205;-70
2023/07/22 02:07:35;;;;;;;8.77;8.03;;;14.40;99.90;;;;;;5033303;28;20298;-70
2023/07/22 02:10:00;;;;;;;8.07;7.33;;;14.60;99.90;;;;;;5033335;28;20980;-70
2023/07/22 02:12:26;;;;;;;7.40;6.67;;;14.40;99.90;;;;;;5037494;28;20211;-70
2023/07/22 02:14:51;;;;;;;7.20;6.60;;;14.50;99.90;;;;;;5030019;28;20198;-71
2023/07/22 02:17:17;;;;;;;7.00;6.50;;;14.40;99.90;;;;;;5038735;28;20296;-71
2023/07/22 02:19:43;;;;;;;7.63;7.03;;;14.30;99.90;;;;;;5032210;28;20884;-75
2023/07/22 02:22:12;;;;;;;7.40;6.90;;;14.30;99.90;;;;;;5038566;28;20214;-75
2023/07/22 02:24:38;;;;;;;8.63;7.93;;;14.30;99.90;;;;;;4982529;28;20207;-76
2023/07/22 02:27:04;;;;;;;7.33;6.73;;;14.20;99.90;;;;;;5040026;28;20218;-77
2023/07/22 02:29:31;;;;;;;7.87;7.17;;;14.10;99.90;;;;;;5032068;28;20617;-72
2023/07/22 02:31:57;;;;;;;6.77;6.23;;;14.20;99.90;;;;;;5038324;28;20219;-72
2023/07/22 02:34:23;;;;;;;7.33;6.63;;;14.20;99.90;;;;;;5029034;28;20199;-72
2023/07/22 02:36:49;;;;;;;8.10;6.40;;;14.20;99.90;;;;;;5030930;28;20190;-77
2023/07/22 02:39:14;;;;;;;7.93;7.20;;;14.30;99.90;;;;;;5035640;28;20256;-72
2023/07/22 02:41:40;;;;;;;7.47;6.80;;;14.30;99.90;;;;;;5009437;28;20704;-72
2023/07/22 02:44:05;;;;;;;6.93;6.43;;;14.10;99.90;;;;;;5031451;28;20241;-72
2023/07/22 02:46:31;;;;;;;7.10;6.43;;;14.10;99.90;;;;;;5029892;28;20479;-71
2023/07/22 02:48:57;;;;;;;6.83;5.83;;;14.10;99.90;;;;;;5037778;28;20218;-72
2023/07/22 02:51:23;;;;;;;6.43;5.90;;;14.00;99.90;;;;;;5037189;28;20219;-73
2023/07/22 02:53:49;;;;;;;6.43;5.90;;;14.10;99.90;;;;;;5036027;28;20210;-73
2023/07/22 02:56:14;;;;;;;6.87;6.23;;;14.10;99.90;;;;;;5033031;28;20284;-73
2023/07/22 02:58:41;;;;;;;6.87;6.33;;;14.10;99.90;;;;;;5037771;28;20245;-69
2023/07/22 03:01:08;;;;;;;8.00;6.60;;;14.10;99.90;;;;;;5038353;28;20199;-68
2023/07/22 03:03:34;;;;;;;6.70;6.10;;;14.10;99.90;;;;;;5036172;28;20585;-70
2023/07/22 03:06:01;;;;;;;6.80;6.23;;;14.00;99.90;;;;;;5029432;28;20202;-69
2023/07/22 03:08:27;;;;;;;7.13;6.63;;;14.00;99.90;;;;;;5037848;28;20201;-67
2023/07/22 03:10:53;;;;;;;7.23;6.47;;;14.10;99.90;;;;;;5037941;28;21375;-66
2023/07/22 03:13:18;;;;;;;6.43;5.93;;;14.20;99.90;;;;;;5033775;28;20203;-68
2023/07/22 03:15:44;;;;;;;7.37;5.47;;;14.30;99.90;;;;;;5033146;28;20210;-67
2023/07/22 03:18:10;;;;;;;6.03;5.60;;;14.20;99.90;;;;;;5025531;28;20237;-67
2023/07/22 03:20:39;;;;;;;6.07;5.47;;;14.10;99.90;;;;;;5036357;28;20199;-68
2023/07/22 03:23:05;;;;;;;6.10;5.60;;;14.00;99.90;;;;;;4986799;28;20653;-69
2023/07/22 03:25:32;;;;;;;5.37;4.97;;;14.00;99.90;;;;;;5034119;28;20195;-69
2023/07/22 03:28:03;;;;;;;9.70;5.93;;;14.00;99.90;;;;;;5033460;28;20340;-71
2023/07/22 03:30:39;;;;;;;6.30;5.77;;;14.00;99.90;;;;;;5035987;28;20203;-71
2023/07/22 03:33:05;;;;;;;5.47;4.97;;;14.00;99.90;;;;;;5033129;28;20298;-72
2023/07/22 03:35:32;;;;;;;5.10;4.70;;;14.00;99.90;;;;;;5031985;28;20289;-71
2023/07/22 03:37:58;;;;;;;6.33;5.10;;;14.00;99.90;;;;;;5026408;28;20206;-72
2023/07/22 03:40:29;;;;;;;5.70;5.13;;;14.00;99.90;;;;;;5031256;28;20215;-72
2023/07/22 03:42:56;;;;;;;5.67;5.03;;;14.00;99.90;;;;;;5027349;28;20199;-71
2023/07/22 03:45:21;;;;;;;6.13;5.40;;;13.80;99.90;;;;;;5031691;28;20215;-71
2023/07/22 03:47:52;;;;;;;6.77;5.17;;;13.90;99.90;;;;;;5035182;28;20198;-71
2023/07/22 03:50:18;;;;;;;6.53;5.80;;;14.10;99.90;;;;;;5036715;28;20861;-72
2023/07/22 03:52:43;;;;;;;5.07;4.70;;;14.20;99.90;;;;;;5036939;28;20230;-71
2023/07/22 03:55:09;;;;;;;7.47;5.50;;;14.10;99.90;;;;;;5035101;28;20207;-73
2023/07/22 03:57:35;;;;;;;5.53;5.13;;;14.20;99.90;;;;;;5014273;28;20883;-71
2023/07/22 04:00:00;;;;;;;6.00;5.03;;;14.00;99.90;;;;;;5037065;28;20207;-71
2023/07/22 04:02:26;;;;;;;5.23;4.83;;;13.90;99.90;;;;;;5036844;28;20207;-71
2023/07/22 04:04:53;;;;;;;5.63;5.13;;;13.90;99.90;;;;;;5036811;28;20210;-70
2023/07/22 04:07:19;;;;;;;5.17;4.77;;;13.90;99.90;;;;;;5034978;28;20210;-70
2023/07/22 04:09:47;;;;;;;5.73;5.13;;;14.00;99.90;;;;;;5031920;28;20206;-70
2023/07/22 04:12:13;;;;;;;5.30;4.63;;;13.90;99.90;;;;;;5036817;28;20994;-69
2023/07/22 04:14:39;;;;;;;6.53;5.40;;;13.80;99.90;;;;;;5032560;28;20203;-69
2023/07/22 04:17:05;;;;;;;6.00;5.00;;;13.80;99.90;;;;;;5036781;28;20657;-70
2023/07/22 04:19:30;;;;;;;5.73;5.03;;;13.80;99.90;;;;;;5035459;28;20198;-71
2023/07/22 04:21:56;;;;;;;8.00;4.80;;;13.90;99.90;;;;;;5030053;28;20203;-70
2023/07/22 04:24:22;;;;;;;4.53;4.23;;;14.00;99.90;;;;;;4985557;28;20276;-71
2023/07/22 04:26:47;;;;;;;5.00;4.53;;;13.90;99.90;;;;;;5017827;28;20213;-70
2023/07/22 04:29:13;;;;;;;5.40;4.90;;;13.90;99.90;;;;;;5033660;28;20421;-70
2023/07/22 04:31:39;;;;;;;6.93;5.10;;;13.90;99.90;;;;;;5036066;28;20198;-69
2023/07/22 04:34:07;;;;;;;4.33;4.03;;;14.10;99.90;;;;;;5035431;28;20206;-70
2023/07/22 04:36:33;;;;;;;5.13;4.67;;;14.10;99.90;;;;;;5032653;28;20291;-81
2023/07/22 04:38:59;;;;;;;4.60;4.30;;;14.00;99.90;;;;;;5033397;28;20285;-68
2023/07/22 04:41:25;;;;;;;5.10;4.23;;;14.00;99.90;;;;;;5032470;28;20248;-76
2023/07/22 04:43:51;;;;;;;4.80;4.30;;;14.20;99.90;;;;;;5034302;28;20199;-69
2023/07/22 04:46:16;;;;;;;5.77;5.27;;;14.20;99.90;;;;;;5035635;28;20294;-69
2023/07/22 04:48:42;;;;;;;4.93;4.53;;;14.10;99.90;;;;;;5036179;28;20289;-69
2023/07/22 04:51:07;;;;;;;5.00;4.60;;;14.30;99.90;;;;;;5036105;28;22355;-70
2023/07/22 04:53:33;;;;;;;5.37;4.83;;;14.40;99.90;;;;;;5028134;28;20294;-71
2023/07/22 04:55:59;;;;;;;4.77;4.37;;;14.40;99.90;;;;;;5028899;28;20321;-71
2023/07/22 04:58:24;;;;;;;9.40;4.70;;;14.20;99.90;;;;;;5031839;28;20222;-71
2023/07/22 05:00:50;;;;;;;6.70;5.00;;;14.40;99.90;;;;;;5032963;28;20199;-72
2023/07/22 05:03:16;;;;;;;5.43;4.93;;;14.30;99.90;;;;;;5033284;28;20256;-72
2023/07/22 05:05:42;;;;;;;6.87;4.90;;;14.20;99.90;;;;;;5036121;28;20203;-72
2023/07/22 05:08:08;;;;;;;5.60;5.10;;;14.20;99.90;;;;;;5036090;28;20210;-72
2023/07/22 05:10:33;;;;;;;7.27;5.60;;;14.20;99.90;;;;;;5034899;28;20195;-71
2023/07/22 05:12:59;;;;;;;6.83;6.00;;;14.30;99.90;;;;;;5035814;28;20280;-72
2023/07/22 05:15:25;;;;;;;6.43;5.83;;;14.40;99.90;;;;;;5034428;28;20202;-72
2023/07/22 05:17:51;;;;;;;6.43;5.80;;;14.30;99.90;;;;;;5031446;28;20196;-72
2023/07/22 05:20:17;;;;;;;8.00;6.47;;;14.40;99.90;;;;;;5035437;28;20865;-72
2023/07/22 05:22:42;;;;;;;7.23;6.53;;;14.30;99.90;;;;;;4996181;28;20851;-72
2023/07/22 05:25:09;;;;;;;6.43;5.67;;;14.30;99.90;;;;;;5034842;28;20676;-72
2023/07/22 05:27:35;;;;;;;8.93;6.33;;;14.30;99.90;;;;;;5015478;28;20205;-71
2023/07/22 05:30:00;;;;;;;6.47;5.87;;;14.30;99.90;;;;;;5027036;28;20195;-71
2023/07/22 05:32:28;;;;;;;7.47;6.77;;;14.30;99.90;;;;;;5035787;28;20215;-71
2023/07/22 05:34:54;;;;;;;6.70;6.13;;;14.40;99.90;;;;;;5036166;28;20210;-72
2023/07/22 05:37:19;;;;;;;6.93;6.23;;;14.40;99.90;;;;;;5033931;28;20195;-71
2023/07/22 05:39:45;;;;;;;8.80;7.77;;;14.40;99.90;;;;;;5035997;28;20195;-73
2023/07/22 05:42:10;;;;;;;7.80;7.00;;;14.40;99.90;;;;;;5035869;28;20290;-73
2023/07/22 05:44:36;;;;;;;7.50;6.10;;;14.40;99.90;;;;;;5035584;28;20838;-73
2023/07/22 05:47:01;;;;;;;11.40;8.57;;;14.50;99.90;;;;;;5037676;28;20201;-73
2023/07/22 05:49:28;;;;;;;8.23;7.23;;;14.60;99.90;;;;;;5039484;28;20286;-72
2023/07/22 05:51:54;;;;;;;8.87;7.23;;;14.60;99.90;;;;;;5037512;28;20736;-72
2023/07/22 05:54:19;;;;;;;11.20;8.00;;;14.60;99.90;;;;;;5033672;28;20203;-73
2023/07/22 05:56:45;;;;;;;9.17;7.00;;;14.60;99.90;;;;;;5036286;28;20194;-72
2023/07/22 05:59:10;;;;;;;8.60;7.70;;;14.60;99.90;;;;;;5035235;28;20210;-72
2023/07/22 06:01:38;;;;;;;8.20;6.83;;;14.90;99.90;;;;;;5039246;28;20191;-70
2023/07/22 06:04:04;;;;;;;9.57;8.00;;;14.90;99.90;;;;;;5036890;28;20371;-71
2023/07/22 06:06:29;;;;;;;9.23;7.87;;;14.80;99.90;;;;;;5037984;28;20199;-70
2023/07/22 06:08:55;;;;;;;10.13;8.40;;;14.70;99.90;;;;;;5037990;28;20201;-71
2023/07/22 06:11:21;;;;;;;8.33;7.53;;;14.70;99.90;;;;;;5034364;28;20202;-72
2023/07/22 06:13:46;;;;;;;7.67;6.80;;;15.00;99.90;;;;;;5039109;28;20210;-72
2023/07/22 06:16:12;;;;;;;9.17;7.63;;;15.00;99.90;;;;;;5033095;28;20202;-72
2023/07/22 06:18:38;;;;;;;7.60;6.90;;;15.00;99.90;;;;;;5035534;28;20211;-73
2023/07/22 06:21:04;;;;;;;9.33;6.97;;;15.10;99.90;;;;;;5033738;28;20209;-72
2023/07/22 06:23:30;;;;;;;8.53;7.67;;;15.10;99.90;;;;;;4983359;28;20684;-71
2023/07/22 06:25:55;;;;;;;8.37;7.43;;;15.20;99.90;;;;;;5039706;28;20300;-71
2023/07/22 06:28:21;;;;;;;9.87;7.47;;;15.10;99.90;;;;;;5032913;28;20238;-71
2023/07/22 06:30:46;;;;;;;9.60;7.60;;;15.10;99.90;;;;;;5032992;28;20210;-71
2023/07/22 06:33:12;;;;;;;9.77;6.83;;;15.10;99.90;;;;;;5034586;28;20302;-71
2023/07/22 06:35:37;;;;;;;7.97;7.17;;;15.20;99.90;;;;;;5034116;28;20574;-72
2023/07/22 06:38:03;;;;;;;7.33;6.40;;;15.30;99.90;;;;;;5038804;28;20569;-71
2023/07/22 06:40:28;;;;;;;12.20;6.60;;;15.30;99.90;;;;;;5035039;28;20272;-72
2023/07/22 06:42:54;;;;;;;13.17;7.73;;;15.30;99.90;;;;;;5037279;28;20204;-72
2023/07/22 06:45:19;;;;;;;10.97;6.97;;;15.40;99.90;;;;;;5034310;28;20211;-71
2023/07/22 06:47:46;;;;;;;10.80;7.50;;;15.60;99.90;;;;;;5037976;28;20384;-72
2023/07/22 06:50:12;;;;;;;7.40;6.40;;;15.80;99.90;;;;;;5033568;28;20230;-72
2023/07/22 06:52:37;;;;;;;6.30;5.20;;;15.90;99.90;;;;;;5031460;28;20215;-72
2023/07/22 06:55:03;;;;;;;5.60;5.03;;;16.10;99.90;;;;;;5037960;28;20298;-71
2023/07/22 06:57:29;;;;;;;7.03;5.07;;;16.10;99.90;;;;;;5027359;28;20723;-70
2023/07/22 06:59:55;;;;;;;8.53;5.07;;;16.00;99.90;;;;;;5040204;28;20674;-69
2023/07/22 07:02:21;;;;;;;4.97;4.10;;;15.90;99.90;;;;;;5039490;28;20213;-70
2023/07/22 07:04:47;;;;;;;4.87;4.37;;;15.90;99.90;;;;;;5038509;28;20203;-70
2023/07/22 07:07:13;;;;;;;7.13;4.87;;;16.10;99.90;;;;;;5032383;28;20230;-70
2023/07/22 07:09:40;;;;;;;6.00;4.47;;;16.10;99.90;;;;;;5030008;28;20206;-70
2023/07/22 07:12:06;;;;;;;6.00;4.50;;;16.10;99.90;;;;;;5020793;28;20682;-69
2023/07/22 07:14:33;;;;;;;8.23;4.73;;;16.10;99.90;;;;;;5036321;28;20195;-70
2023/07/22 07:16:59;;;;;;;6.77;4.00;;;16.20;99.90;;;;;;5036130;28;20581;-70
2023/07/22 07:19:25;;;;;;;5.73;4.10;;;16.20;99.90;;;;;;5036356;28;20198;-69
2023/07/22 07:21:51;;;;;;;5.80;4.10;;;16.40;99.90;;;;;;5038218;28;20305;-71
2023/07/22 07:24:16;;;;;;;4.07;3.73;;;16.30;99.90;;;;;;4987365;28;20237;-71
2023/07/22 07:26:42;;;;;;;6.60;5.03;;;16.30;99.90;;;;;;5029602;28;20190;-68
2023/07/22 07:29:18;;;;;;;;;;;;;;;;;;;;;
2023/07/22 07:31:43;;;;;;;7.60;4.50;;;16.70;99.90;;;;;;5035094;28;20206;-79
2023/07/22 07:34:09;;;;;;;7.60;4.70;;;16.60;99.90;;;;;;5038732;28;20213;-79
2023/07/22 07:36:34;;;;;;;6.50;3.93;;;16.40;99.90;;;;;;5033818;28;20214;-76
2023/07/22 07:39:00;;;;;;;6.43;4.80;;;16.40;99.90;;;;;;5038215;28;20195;-78
2023/07/22 07:41:25;;;;;;;6.20;4.33;;;16.60;99.90;;;;;;5027599;28;20559;-76
2023/07/22 07:43:51;;;;;;;7.13;4.67;;;16.70;99.90;;;;;;5036544;28;20191;-78
2023/07/22 07:46:22;;;;;;;7.83;4.80;;;16.80;99.90;;;;;;5036523;28;20205;-77
2023/07/22 07:48:52;;;;;;;8.83;4.73;;;16.80;99.90;;;;;;5036917;28;20214;-76
2023/07/22 07:51:19;;;;;;;6.63;5.77;;;16.70;99.90;;;;;;5036947;28;20241;-78
2023/07/22 07:53:49;;;;;;;6.47;4.23;;;16.70;99.90;;;;;;5033886;28;20291;-76
2023/07/22 07:56:15;;;;;;;5.90;4.43;;;16.90;99.90;;;;;;5034507;28;20199;-80
2023/07/22 07:58:41;;;;;;;5.30;4.43;;;16.80;99.90;;;;;;5036695;28;20199;-74
2023/07/22 08:01:07;;;;;;;5.07;4.40;;;17.10;99.90;;;;;;5036817;28;20776;-73
2023/07/22 08:03:34;;;;;;;10.90;5.97;;;16.90;99.90;;;;;;5032327;28;20723;-74
2023/07/22 08:06:00;;;;;;;7.77;5.20;;;17.10;99.90;;;;;;5037141;28;20203;-70
2023/07/22 08:08:26;;;;;;;6.77;4.53;;;17.10;99.90;;;;;;5035623;28;20654;-70
2023/07/22 08:11:06;;;;;;;6.03;4.83;;;16.90;99.90;;;;;;5036744;28;20211;-71
2023/07/22 08:13:33;;;;;;;4.80;4.40;;;16.90;99.90;;;;;;5034729;28;20249;-75
2023/07/22 08:16:04;;;;;;;6.30;4.10;;;16.90;99.90;;;;;;5037383;28;20709;-74
2023/07/22 08:18:30;;;;;;;6.80;5.03;;;17.10;99.90;;;;;;5035867;28;20207;-74
2023/07/22 08:20:56;;;;;;;5.27;4.03;;;17.20;99.90;;;;;;5033055;28;20200;-74
2023/07/22 08:23:22;;;;;;;8.30;5.13;;;17.20;99.90;;;;;;4982042;28;20199;-71
2023/07/22 08:25:48;;;;;;;6.77;5.27;;;17.30;99.90;;;;;;5035077;28;20761;-70
2023/07/22 08:28:13;;;;;;;5.90;4.53;;;17.40;99.90;;;;;;5033113;28;20213;-69
2023/07/22 08:30:40;;;;;;;6.40;4.97;;;17.60;99.90;;;;;;5035774;28;20602;-70
2023/07/22 08:33:12;;;;;;;4.87;4.23;;;17.60;99.90;;;;;;5029515;28;20213;-72
2023/07/22 08:35:39;;;;;;;5.83;5.23;;;17.50;99.90;;;;;;5034368;28;20210;-71
2023/07/22 08:38:05;;;;;;;5.63;4.40;;;17.60;99.90;;;;;;5030531;28;20272;-74
2023/07/22 08:40:37;;;;;;;8.77;4.27;;;17.50;99.90;;;;;;5036795;28;20203;-71
2023/07/22 08:43:05;;;;;;;7.10;4.50;;;17.60;99.90;;;;;;5029816;28;20743;-71
2023/07/22 08:45:36;;;;;;;4.80;4.30;;;17.70;99.90;;;;;;5035625;28;20204;-72
2023/07/22 08:48:07;;;;;;;4.70;4.20;;;17.60;99.90;;;;;;5036199;28;20274;-72
2023/07/22 08:51:02;;;;;;;7.13;4.27;;;17.60;99.90;;;;;;5029169;28;20244;-71
2023/07/22 08:53:28;;;;;;;6.00;4.67;;;17.80;99.90;;;;;;5032328;28;20577;-72
2023/07/22 09:02:40;;;;;;;4.70;4.27;;;17.80;99.90;;;;;;5029933;28;20373;-74
2023/07/22 09:05:06;;;;;;;3.93;3.17;;;17.80;99.90;;;;;;5030098;28;20191;-76
2023/07/22 09:07:31;;;;;;;5.13;4.07;;;17.90;99.90;;;;;;5035055;28;20210;-75
2023/07/22 09:09:57;;;;;;;6.10;4.57;;;18.20;99.90;;;;;;5036736;28;20201;-76
2023/07/22 09:12:24;;;;;;;8.03;4.60;;;18.40;99.90;;;;;;5036270;28;20294;-76
2023/07/22 09:14:50;;;;;;;6.67;4.20;;;18.40;99.90;;;;;;5027857;28;20308;-74
2023/07/22 09:17:16;;;;;;;5.77;4.13;;;18.50;99.90;;;;;;5033566;28;20242;-67
2023/07/22 09:19:41;;;;;;;4.47;4.07;;;18.50;99.90;;;;;;5035311;28;20633;-71
2023/07/22 09:22:10;;;;;;;9.60;4.00;;;18.50;99.90;;;;;;5038242;28;20200;-71
2023/07/22 09:24:35;;;;;;;9.27;4.23;;;18.60;99.90;;;;;;4991579;28;20600;-72
2023/07/22 09:27:01;;;;;;;4.80;3.87;;;18.40;99.90;;;;;;5033578;28;20204;-73
2023/07/22 09:29:39;;;;;;;6.67;4.23;;;18.50;99.90;;;;;;5039813;28;20205;-74
2023/07/22 09:32:05;;;;;;;3.87;3.47;;;18.50;99.90;;;;;;5036090;28;20251;-73
2023/07/22 09:34:31;;;;;;;4.37;3.90;;;18.70;99.90;;;;;;5038056;28;20194;-70
2023/07/22 09:37:00;;;;;;;4.00;3.33;;;18.80;99.90;;;;;;5032451;28;20205;-72
2023/07/22 09:39:26;;;;;;;6.23;3.53;;;18.80;99.90;;;;;;5033193;28;20279;-74
2023/07/22 09:41:55;;;;;;;6.43;3.63;;;19.00;99.90;;;;;;5032851;28;20205;-73
2023/07/22 09:44:21;;;;;;;7.47;3.10;;;19.00;99.90;;;;;;5038588;28;20196;-73
2023/07/22 09:46:50;;;;;;;3.93;3.10;;;18.80;99.90;;;;;;5037575;28;20670;-74
2023/07/22 09:49:17;;;;;;;4.97;3.50;;;18.80;99.90;;;;;;5037988;28;20281;-73
2023/07/22 09:51:43;;;;;;;2.80;2.60;;;19.10;99.90;;;;;;5035871;28;20230;-74
2023/07/22 09:54:09;;;;;;;4.30;3.20;;;19.30;99.90;;;;;;5037906;28;20617;-73
2023/07/22 09:56:47;;;;;;;5.03;2.83;;;19.30;99.90;;;;;;5035884;28;20205;-74
2023/07/22 09:59:13;;;;;;;3.73;2.50;;;19.20;99.90;;;;;;5033598;28;20310;-73
2023/07/22 10:01:40;;;;;;;3.53;3.20;;;19.20;99.90;;;;;;5035863;28;20212;-71
2023/07/22 10:04:06;;;;;;;4.93;2.80;;;19.30;99.90;;;;;;5035451;28;20263;-76
2023/07/22 10:06:33;;;;;;;4.07;2.80;;;19.40;99.90;;;;;;5038972;28;21194;-70
2023/07/22 10:09:07;;;;;;;4.20;2.87;;;19.40;99.70;;;;;;5042013;28;20208;-69
2023/07/22 10:11:34;;;;;;;2.87;2.67;;;19.00;99.40;;;;;;5037665;28;20222;-69
2023/07/22 10:14:02;;;;;;;3.67;2.90;;;19.10;99.90;;;;;;5039652;28;20488;-68
2023/07/22 10:16:28;;;;;;;3.10;2.87;;;19.40;99.40;;;;;;5038133;28;20192;-68
2023/07/22 10:18:54;;;;;;;3.00;2.70;;;19.60;99.20;;;;;;5033548;28;20209;-69
2023/07/22 10:21:20;;;;;;;3.33;2.30;;;19.90;97.80;;;;;;5037103;28;20199;-73
2023/07/22 10:23:47;;;;;;;5.27;3.10;;;19.80;99.10;;;;;;5035626;28;20312;-70
2023/07/22 10:26:18;;;;;;;3.83;2.67;;;19.90;97.40;;;;;;5036692;28;20611;-69
2023/07/22 10:28:45;;;;;;;5.23;3.20;;;19.90;98.40;;;;;;5033458;28;20209;-71
2023/07/22 10:31:18;;;;;;;2.97;2.77;;;19.90;97.20;;;;;;5037498;28;20209;-73
2023/07/22 10:33:47;;;;;;;2.73;2.53;;;19.70;97.00;;;;;;5037732;28;20750;-71
2023/07/22 10:36:15;;;;;;;3.77;3.40;;;19.50;96.80;;;;;;5035328;28;20229;-73
2023/07/22 10:38:42;;;;;;;3.40;2.60;;;19.60;96.20;;;;;;5035563;28;20607;-72
2023/07/22 10:41:18;;;;;;;4.50;2.97;;;19.70;96.50;;;;;;5035456;28;20202;-72
2023/07/22 10:43:58;;;;;;;4.23;2.90;;;19.80;96.80;;;;;;5037930;28;20742;-72
2023/07/22 10:46:35;;;;;;;3.80;3.13;;;19.80;96.40;;;;;;5037767;28;20228;-69
2023/07/22 10:49:12;;;;;;;3.90;3.20;;;19.50;96.20;;;;;;5034734;28;20228;-70
2023/07/22 10:51:41;;;;;;;4.83;2.70;;;19.40;95.30;;;;;;5034095;28;20227;-69
2023/07/22 10:54:14;;;;;;;4.40;3.23;;;19.40;96.30;;;;;;5033565;28;20213;-68
2023/07/22 10:56:46;;;;;;;5.50;3.10;;;19.70;95.40;;;;;;5036133;28;20206;-68
2023/07/22 10:59:12;;;;;;;3.60;3.30;;;20.10;94.50;;;;;;5037496;28;20575;-67
2023/07/22 11:01:39;;;;;;;4.33;3.67;;;20.20;95.50;;;;;;5038108;28;20202;-69
2023/07/22 11:04:15;;;;;;;4.83;3.87;;;20.20;94.40;;;;;;5032853;28;20749;-72
2023/07/22 11:06:43;;;;;;;3.57;2.97;;;20.30;94.90;;;;;;5031740;28;20286;-74
2023/07/22 11:09:34;;;;;;;5.47;3.70;;;20.40;93.10;;;;;;5035264;28;20200;-74
2023/07/22 11:12:04;;;;;;;3.67;3.33;;;20.30;92.70;;;;;;5036913;28;20440;-75
2023/07/22 11:14:32;;;;;;;6.13;3.17;;;20.30;93.70;;;;;;5033534;28;20198;-74
2023/07/22 11:17:00;;;;;;;5.60;3.17;;;20.50;92.60;;;;;;5019338;28;20643;-74
2023/07/22 11:19:26;;;;;;;3.87;3.57;;;20.70;92.80;;;;;;5034169;28;20696;-74
2023/07/22 11:21:53;;;;;;;3.93;3.17;;;20.80;93.10;;;;;;5033182;28;20207;-73
2023/07/22 11:24:26;;;;;;;5.37;3.93;;;21.00;92.60;;;;;;5036236;28;20203;-75
2023/07/22 11:26:53;;;;;;;4.30;3.90;;;21.40;92.50;;;;;;5027434;28;20217;-75
2023/07/22 11:29:19;;;;;;;4.50;3.50;;;21.30;92.10;;;;;;5034305;28;20232;-75
2023/07/22 11:31:46;;;;;;;4.77;4.27;;;21.30;93.00;;;;;;5033700;28;20206;-71
2023/07/22 11:34:13;;;;;;;6.47;3.60;;;21.50;93.90;;;;;;5032399;28;20238;-73
2023/07/22 11:36:39;;;;;;;5.03;3.80;;;22.00;90.60;;;;;;5035733;28;20222;-72
2023/07/22 11:39:07;;;;;;;4.33;3.33;;;22.20;90.20;;;;;;5034822;28;20272;-70
2023/07/22 11:41:33;;;;;;;5.20;4.17;;;22.10;87.60;;;;;;5033112;28;20287;-71
2023/07/22 11:44:00;;;;;;;5.57;3.73;;;21.80;90.70;;;;;;5034226;28;20234;-70
2023/07/22 11:46:29;;;;;;;3.83;3.37;;;21.80;92.20;;;;;;5036803;28;20252;-72
2023/07/22 11:48:55;;;;;;;4.77;3.70;;;21.70;86.30;;;;;;5032425;28;20218;-68
2023/07/22 11:51:24;;;;;;;3.77;3.10;;;21.80;89.10;;;;;;5033755;28;20249;-67
2023/07/22 11:53:51;;;;;;;4.07;3.67;;;21.40;88.80;;;;;;5032378;28;20223;-74
2023/07/22 11:56:26;;;;;;;4.00;3.67;;;21.50;89.40;;;;;;5034875;28;20230;-73
2023/07/22 11:58:53;;;;;;;3.93;3.53;;;22.10;88.90;;;;;;5028350;28;20578;-70
2023/07/22 12:01:19;;;;;;;4.47;4.07;;;22.70;83.90;;;;;;5034992;28;20206;-70
2023/07/22 12:03:45;;;;;;;5.13;3.77;;;22.80;83.80;;;;;;5030124;28;20202;-70
2023/07/22 12:06:11;;;;;;;3.70;3.40;;;22.90;83.80;;;;;;5036119;28;20199;-70
2023/07/22 12:08:37;;;;;;;4.13;3.77;;;22.90;83.90;;;;;;5035538;28;20243;-73
2023/07/22 12:11:03;;;;;;;4.35;3.90;;;22.90;83.60;;;;;;5028362;28;20206;-71
2023/07/22 12:13:35;;;;;;;3.97;3.37;;;22.90;84.10;;;;;;5036667;28;20218;-69
2023/07/22 12:16:05;;;;;;;3.97;3.67;;;23.70;80.10;;;;;;5034089;28;20221;-73
2023/07/22 12:18:44;;;;;;;3.78;3.47;;;23.50;78.10;;;;;;5033043;28;20207;-73
2023/07/22 12:21:10;;;;;;;4.20;3.80;;;23.20;79.40;;;;;;5032845;28;20214;-73
2023/07/22 12:23:37;;;;;;;4.07;3.67;;;22.90;82.40;;;;;;5036109;28;20324;-73
2023/07/22 12:26:03;;;;;;;4.63;4.23;;;22.80;80.40;;;;;;5033531;28;20611;-74
2023/07/22 12:28:28;;;;;;;4.23;3.53;;;23.00;77.50;;;;;;5031811;28;20206;-75
2023/07/22 12:30:55;;;;;;;4.13;3.73;;;23.10;76.90;;;;;;5034573;28;20233;-73
2023/07/22 12:33:20;;;;;;;4.10;3.20;;;22.60;80.00;;;;;;5036229;28;20209;-73
2023/07/22 12:35:46;;;;;;;4.93;4.20;;;22.20;80.40;;;;;;5035130;28;20273;-73
2023/07/22 12:38:11;;;;;;;5.20;4.23;;;22.20;81.90;;;;;;5030985;28;20213;-73
2023/07/22 12:40:38;;;;;;;7.60;6.83;;;22.30;81.20;;;;;;5031259;28;20572;-74
2023/07/22 12:43:03;;;;;;;5.53;4.87;;;22.40;81.30;;;;;;5034631;28;20237;-73
2023/07/22 12:45:29;;;;;;;5.80;4.27;;;22.50;79.90;;;;;;5035927;28;20242;-74
2023/07/22 12:47:55;;;;;;;4.40;4.00;;;22.40;81.40;;;;;;5030874;28;20208;-74
2023/07/22 12:50:20;;;;;;;5.47;4.87;;;22.60;80.80;;;;;;5032735;28;20237;-73
2023/07/22 12:52:46;;;;;;;6.17;4.60;;;23.00;81.80;;;;;;5034411;28;20275;-76